sensor_id;sensor_type;location;lat;lon;timestamp;pressure;altitude;pressure_sealevel;temperature;humidity
2397;BME280;1209;48.410;9.054;2022-11-23T00:00:55;94917.84;;;5.05;100.00
2397;BME280;1209;48.410;9.054;2022-11-23T00:03:21;94917.91;;;4.97;100.00
2397;BME280;1209;48.410;9.054;2022-11-23T00:05:46;94912.44;;;4.92;100.00
2397;BME280;1209;48.410;9.054;2022-11-23T00:08:11;94913.09;;;4.94;100.00
2397;BME280;1209;48.410;9.054;2022-11-23T00:10:37;94910.31;;;4.95;100.00
2397;BME280;1209;48.410;9.054;2022-11-23T00:13:02;94911.31;;;4.94;100.00
2397;BME280;1209;48.410;9.054;2022-11-23T00:15:27;94915.22;;;4.90;100.00
2397;BME280;1209;48.410;9.054;2022-11-23T00:17:53;94921.72;;;4.86;100.00
2397;BME280;1209;48.410;9.054;2022-11-23T00:20:18;94916.47;;;4.94;100.00
2397;BME280;1209;48.410;9.054;2022-11-23T00:22:43;94912.09;;;4.95;100.00
2397;BME280;1209;48.410;9.054;2022-11-23T00:25:09;94917.97;;;4.89;100.00
2397;BME280;1209;48.410;9.054;2022-11-23T00:27:34;94908.78;;;4.86;100.00
2397;BME280;1209;48.410;9.054;2022-11-23T00:29:59;94915.28;;;4.82;100.00
2397;BME280;1209;48.410;9.054;2022-11-23T00:32:24;94919.81;;;4.80;100.00
2397;BME280;1209;48.410;9.054;2022-11-23T00:34:51;94926.16;;;4.69;100.00
2397;BME280;1209;48.410;9.054;2022-11-23T00:37:16;94925.81;;;4.72;100.00
2397;BME280;1209;48.410;9.054;2022-11-23T00:39:42;94923.81;;;4.60;100.00
2397;BME280;1209;48.410;9.054;2022-11-23T00:42:07;94921.16;;;4.45;100.00
2397;BME280;1209;48.410;9.054;2022-11-23T00:44:32;94924.06;;;4.42;100.00
2397;BME280;1209;48.410;9.054;2022-11-23T00:46:57;94930.69;;;4.45;100.00
2397;BME280;1209;48.410;9.054;2022-11-23T00:49:23;94922.59;;;4.48;100.00
2397;BME280;1209;48.410;9.054;2022-11-23T00:51:48;94925.06;;;4.41;100.00
2397;BME280;1209;48.410;9.054;2022-11-23T00:54:13;94925.69;;;4.43;100.00
2397;BME280;1209;48.410;9.054;2022-11-23T00:56:39;94921.94;;;4.46;100.00
2397;BME280;1209;48.410;9.054;2022-11-23T00:59:04;94912.97;;;4.33;100.00
2397;BME280;1209;48.410;9.054;2022-11-23T01:01:33;94908.16;;;4.30;100.00
2397;BME280;1209;48.410;9.054;2022-11-23T01:03:59;94910.41;;;4.25;100.00
2397;BME280;1209;48.410;9.054;2022-11-23T01:06:27;94909.81;;;4.15;100.00
2397;BME280;1209;48.410;9.054;2022-11-23T01:08:55;94912.75;;;4.12;100.00
2397;BME280;1209;48.410;9.054;2022-11-23T01:11:21;94917.22;;;4.18;100.00
2397;BME280;1209;48.410;9.054;2022-11-23T01:13:47;94919.00;;;4.18;100.00
2397;BME280;1209;48.410;9.054;2022-11-23T01:16:16;94915.63;;;4.17;100.00
2397;BME280;1209;48.410;9.054;2022-11-23T01:18:42;94924.66;;;4.21;100.00
2397;BME280;1209;48.410;9.054;2022-11-23T01:21:08;94932.09;;;4.16;100.00
2397;BME280;1209;48.410;9.054;2022-11-23T01:23:33;94926.78;;;4.09;100.00
2397;BME280;1209;48.410;9.054;2022-11-23T01:26:09;94933.59;;;4.02;100.00
2397;BME280;1209;48.410;9.054;2022-11-23T01:28:36;94936.22;;;3.94;100.00
2397;BME280;1209;48.410;9.054;2022-11-23T01:31:08;94927.00;;;4.00;100.00
2397;BME280;1209;48.410;9.054;2022-11-23T01:33:34;94921.69;;;3.93;100.00
2397;BME280;1209;48.410;9.054;2022-11-23T01:35:59;94928.00;;;3.91;100.00
2397;BME280;1209;48.410;9.054;2022-11-23T01:38:25;94928.03;;;3.83;100.00
2397;BME280;1209;48.410;9.054;2022-11-23T01:40:51;94925.94;;;3.78;100.00
2397;BME280;1209;48.410;9.054;2022-11-23T01:43:17;94930.03;;;3.56;100.00
2397;BME280;1209;48.410;9.054;2022-11-23T01:45:54;94940.13;;;3.74;100.00
2397;BME280;1209;48.410;9.054;2022-11-23T01:48:24;94929.38;;;3.54;100.00
2397;BME280;1209;48.410;9.054;2022-11-23T01:50:51;94930.34;;;3.53;100.00
2397;BME280;1209;48.410;9.054;2022-11-23T01:53:18;94938.25;;;3.52;100.00
2397;BME280;1209;48.410;9.054;2022-11-23T01:55:45;94924.72;;;3.50;100.00
2397;BME280;1209;48.410;9.054;2022-11-23T01:58:15;94935.69;;;3.52;100.00
2397;BME280;1209;48.410;9.054;2022-11-23T02:00:43;94931.84;;;3.39;100.00
2397;BME280;1209;48.410;9.054;2022-11-23T02:03:09;94926.66;;;3.47;100.00
2397;BME280;1209;48.410;9.054;2022-11-23T02:05:39;94933.09;;;3.52;100.00
2397;BME280;1209;48.410;9.054;2022-11-23T02:08:06;94947.00;;;3.42;100.00
2397;BME280;1209;48.410;9.054;2022-11-23T02:10:33;94940.53;;;3.46;100.00
2397;BME280;1209;48.410;9.054;2022-11-23T02:13:02;94943.59;;;3.26;100.00
2397;BME280;1209;48.410;9.054;2022-11-23T02:15:29;94949.56;;;3.42;100.00
2397;BME280;1209;48.410;9.054;2022-11-23T02:17:56;94946.19;;;3.34;100.00
2397;BME280;1209;48.410;9.054;2022-11-23T02:20:23;94944.56;;;3.16;100.00
2397;BME280;1209;48.410;9.054;2022-11-23T02:23:04;94935.53;;;3.12;100.00
2397;BME280;1209;48.410;9.054;2022-11-23T02:27:58;94934.41;;;3.23;100.00
2397;BME280;1209;48.410;9.054;2022-11-23T02:30:24;94939.25;;;3.18;100.00
2397;BME280;1209;48.410;9.054;2022-11-23T02:32:49;94929.72;;;3.27;100.00
2397;BME280;1209;48.410;9.054;2022-11-23T02:35:15;94928.28;;;3.24;100.00
2397;BME280;1209;48.410;9.054;2022-11-23T02:37:40;94939.41;;;3.08;100.00
2397;BME280;1209;48.410;9.054;2022-11-23T02:40:15;94951.66;;;3.23;100.00
2397;BME280;1209;48.410;9.054;2022-11-23T02:42:45;94943.91;;;3.23;100.00
2397;BME280;1209;48.410;9.054;2022-11-23T02:47:55;94944.91;;;3.13;100.00
2397;BME280;1209;48.410;9.054;2022-11-23T02:50:20;94946.34;;;3.16;100.00
2397;BME280;1209;48.410;9.054;2022-11-23T02:52:46;94948.44;;;3.21;100.00
2397;BME280;1209;48.410;9.054;2022-11-23T02:55:11;94945.22;;;2.86;100.00
2397;BME280;1209;48.410;9.054;2022-11-23T02:57:36;94944.25;;;3.03;100.00
2397;BME280;1209;48.410;9.054;2022-11-23T03:00:03;94945.88;;;2.96;100.00
2397;BME280;1209;48.410;9.054;2022-11-23T03:02:28;94945.88;;;2.88;100.00
2397;BME280;1209;48.410;9.054;2022-11-23T03:04:54;94951.34;;;2.85;100.00
2397;BME280;1209;48.410;9.054;2022-11-23T03:07:19;94948.72;;;2.69;100.00
2397;BME280;1209;48.410;9.054;2022-11-23T03:09:44;94943.94;;;2.90;100.00
2397;BME280;1209;48.410;9.054;2022-11-23T03:12:09;94948.06;;;2.50;100.00
2397;BME280;1209;48.410;9.054;2022-11-23T03:14:35;94948.41;;;2.64;100.00
2397;BME280;1209;48.410;9.054;2022-11-23T03:17:03;94948.59;;;2.87;100.00
2397;BME280;1209;48.410;9.054;2022-11-23T03:19:29;94947.63;;;2.88;100.00
2397;BME280;1209;48.410;9.054;2022-11-23T03:21:54;94947.44;;;2.81;100.00
2397;BME280;1209;48.410;9.054;2022-11-23T03:24:19;94953.72;;;2.78;100.00
2397;BME280;1209;48.410;9.054;2022-11-23T03:26:45;94944.88;;;2.81;100.00
2397;BME280;1209;48.410;9.054;2022-11-23T03:29:11;94951.19;;;2.95;100.00
2397;BME280;1209;48.410;9.054;2022-11-23T03:31:36;94953.28;;;2.91;100.00
2397;BME280;1209;48.410;9.054;2022-11-23T03:34:01;94958.56;;;2.81;100.00
2397;BME280;1209;48.410;9.054;2022-11-23T03:36:27;94958.06;;;2.78;100.00
2397;BME280;1209;48.410;9.054;2022-11-23T03:38:52;94949.84;;;2.74;100.00
2397;BME280;1209;48.410;9.054;2022-11-23T03:41:17;94951.94;;;2.71;100.00
2397;BME280;1209;48.410;9.054;2022-11-23T03:43:43;94944.53;;;2.68;100.00
2397;BME280;1209;48.410;9.054;2022-11-23T03:46:08;94936.50;;;2.79;100.00
2397;BME280;1209;48.410;9.054;2022-11-23T03:48:33;94935.88;;;2.93;100.00
2397;BME280;1209;48.410;9.054;2022-11-23T03:50:58;94918.47;;;2.95;100.00
2397;BME280;1209;48.410;9.054;2022-11-23T03:53:24;94929.91;;;3.01;100.00
2397;BME280;1209;48.410;9.054;2022-11-23T03:55:49;94928.78;;;2.95;100.00
2397;BME280;1209;48.410;9.054;2022-11-23T03:58:14;94931.19;;;3.05;100.00
2397;BME280;1209;48.410;9.054;2022-11-23T04:00:40;94925.06;;;3.06;100.00
2397;BME280;1209;48.410;9.054;2022-11-23T04:03:05;94925.22;;;3.12;100.00
2397;BME280;1209;48.410;9.054;2022-11-23T04:05:31;94919.59;;;3.09;100.00
2397;BME280;1209;48.410;9.054;2022-11-23T04:07:56;94923.28;;;3.31;100.00
2397;BME280;1209;48.410;9.054;2022-11-23T04:10:21;94926.84;;;3.22;100.00
2397;BME280;1209;48.410;9.054;2022-11-23T04:12:53;94924.91;;;3.07;100.00
2397;BME280;1209;48.410;9.054;2022-11-23T04:15:18;94920.72;;;3.14;100.00
2397;BME280;1209;48.410;9.054;2022-11-23T04:17:44;94917.16;;;3.24;100.00
2397;BME280;1209;48.410;9.054;2022-11-23T04:20:10;94912.50;;;3.19;100.00
2397;BME280;1209;48.410;9.054;2022-11-23T04:22:35;94903.47;;;3.15;100.00
2397;BME280;1209;48.410;9.054;2022-11-23T04:25:01;94905.41;;;3.05;100.00
2397;BME280;1209;48.410;9.054;2022-11-23T04:27:26;94907.34;;;3.11;100.00
2397;BME280;1209;48.410;9.054;2022-11-23T04:29:51;94906.69;;;3.17;100.00
2397;BME280;1209;48.410;9.054;2022-11-23T04:32:17;94908.63;;;3.23;100.00
2397;BME280;1209;48.410;9.054;2022-11-23T04:34:42;94894.59;;;3.26;100.00
2397;BME280;1209;48.410;9.054;2022-11-23T04:37:07;94904.28;;;3.15;100.00
2397;BME280;1209;48.410;9.054;2022-11-23T04:39:33;94889.59;;;3.24;100.00
2397;BME280;1209;48.410;9.054;2022-11-23T04:41:58;94899.28;;;3.14;100.00
2397;BME280;1209;48.410;9.054;2022-11-23T04:44:23;94889.28;;;3.19;100.00
2397;BME280;1209;48.410;9.054;2022-11-23T04:46:49;94888.47;;;3.27;100.00
2397;BME280;1209;48.410;9.054;2022-11-23T04:49:15;94898.66;;;3.04;100.00
2397;BME280;1209;48.410;9.054;2022-11-23T04:51:41;94891.38;;;3.24;100.00
2397;BME280;1209;48.410;9.054;2022-11-23T04:54:06;94891.69;;;3.29;100.00
2397;BME280;1209;48.410;9.054;2022-11-23T04:56:32;94890.88;;;3.36;100.00
2397;BME280;1209;48.410;9.054;2022-11-23T04:58:57;94896.38;;;3.09;100.00
2397;BME280;1209;48.410;9.054;2022-11-23T05:01:22;94906.03;;;3.23;100.00
2397;BME280;1209;48.410;9.054;2022-11-23T05:03:48;94901.03;;;3.38;100.00
2397;BME280;1209;48.410;9.054;2022-11-23T05:06:13;94901.06;;;3.13;100.00
2397;BME280;1209;48.410;9.054;2022-11-23T05:08:38;94904.41;;;3.30;100.00
2397;BME280;1209;48.410;9.054;2022-11-23T05:11:04;94897.81;;;3.28;100.00
2397;BME280;1209;48.410;9.054;2022-11-23T05:13:29;94906.03;;;3.39;100.00
2397;BME280;1209;48.410;9.054;2022-11-23T05:15:54;94898.13;;;3.41;100.00
2397;BME280;1209;48.410;9.054;2022-11-23T05:18:20;94902.50;;;3.32;100.00
2397;BME280;1209;48.410;9.054;2022-11-23T05:20:45;94906.50;;;3.43;100.00
2397;BME280;1209;48.410;9.054;2022-11-23T05:23:11;94907.31;;;3.43;100.00
2397;BME280;1209;48.410;9.054;2022-11-23T05:25:36;94905.41;;;3.37;100.00
2397;BME280;1209;48.410;9.054;2022-11-23T05:28:02;94906.31;;;3.53;100.00
2397;BME280;1209;48.410;9.054;2022-11-23T05:30:28;94913.91;;;3.46;100.00
2397;BME280;1209;48.410;9.054;2022-11-23T05:32:53;94917.81;;;3.17;100.00
2397;BME280;1209;48.410;9.054;2022-11-23T05:35:18;94909.13;;;3.10;100.00
2397;BME280;1209;48.410;9.054;2022-11-23T05:37:44;94905.25;;;3.14;100.00
2397;BME280;1209;48.410;9.054;2022-11-23T05:40:10;94905.41;;;2.72;100.00
2397;BME280;1209;48.410;9.054;2022-11-23T05:42:36;94904.91;;;2.69;100.00
2397;BME280;1209;48.410;9.054;2022-11-23T05:45:01;94900.06;;;2.66;100.00
2397;BME280;1209;48.410;9.054;2022-11-23T05:47:27;94906.53;;;2.78;100.00
2397;BME280;1209;48.410;9.054;2022-11-23T05:49:52;94902.53;;;2.92;100.00
2397;BME280;1209;48.410;9.054;2022-11-23T05:52:17;94908.81;;;2.97;100.00
2397;BME280;1209;48.410;9.054;2022-11-23T05:54:43;94912.50;;;3.03;100.00
2397;BME280;1209;48.410;9.054;2022-11-23T05:57:09;94914.44;;;3.09;100.00
2397;BME280;1209;48.410;9.054;2022-11-23T05:59:35;94914.94;;;2.96;100.00
2397;BME280;1209;48.410;9.054;2022-11-23T06:02:00;94911.53;;;3.04;100.00
2397;BME280;1209;48.410;9.054;2022-11-23T06:04:25;94906.88;;;2.99;100.00
2397;BME280;1209;48.410;9.054;2022-11-23T06:06:51;94911.69;;;3.02;100.00
2397;BME280;1209;48.410;9.054;2022-11-23T06:09:19;94909.94;;;3.03;100.00
2397;BME280;1209;48.410;9.054;2022-11-23T06:11:44;94912.69;;;2.93;100.00
2397;BME280;1209;48.410;9.054;2022-11-23T06:14:12;94916.53;;;2.97;100.00
2397;BME280;1209;48.410;9.054;2022-11-23T06:16:37;94911.38;;;2.89;100.00
2397;BME280;1209;48.410;9.054;2022-11-23T06:19:03;94916.06;;;2.86;100.00
2397;BME280;1209;48.410;9.054;2022-11-23T06:21:28;94909.63;;;2.98;100.00
2397;BME280;1209;48.410;9.054;2022-11-23T06:23:54;94912.81;;;2.83;100.00
2397;BME280;1209;48.410;9.054;2022-11-23T06:26:19;94917.84;;;2.85;100.00
2397;BME280;1209;48.410;9.054;2022-11-23T06:28:45;94912.16;;;2.81;100.00
2397;BME280;1209;48.410;9.054;2022-11-23T06:31:10;94914.13;;;2.88;100.00
2397;BME280;1209;48.410;9.054;2022-11-23T06:33:35;94920.56;;;2.92;100.00
2397;BME280;1209;48.410;9.054;2022-11-23T06:36:01;94919.28;;;2.88;100.00
2397;BME280;1209;48.410;9.054;2022-11-23T06:38:28;94923.75;;;2.61;100.00
2397;BME280;1209;48.410;9.054;2022-11-23T06:41:00;94918.91;;;2.50;100.00
2397;BME280;1209;48.410;9.054;2022-11-23T06:43:27;94917.47;;;2.64;100.00
2397;BME280;1209;48.410;9.054;2022-11-23T06:45:53;94918.44;;;2.63;100.00
2397;BME280;1209;48.410;9.054;2022-11-23T06:48:19;94931.00;;;2.74;100.00
2397;BME280;1209;48.410;9.054;2022-11-23T06:50:45;94931.31;;;2.71;100.00
2397;BME280;1209;48.410;9.054;2022-11-23T06:53:10;94928.91;;;2.77;100.00
2397;BME280;1209;48.410;9.054;2022-11-23T06:55:39;94929.41;;;2.73;100.00
2397;BME280;1209;48.410;9.054;2022-11-23T06:58:05;94930.69;;;2.61;100.00
2397;BME280;1209;48.410;9.054;2022-11-23T07:00:31;94932.28;;;2.53;100.00
2397;BME280;1209;48.410;9.054;2022-11-23T07:02:57;94940.34;;;2.67;100.00
2397;BME280;1209;48.410;9.054;2022-11-23T07:05:23;94944.53;;;2.68;100.00
2397;BME280;1209;48.410;9.054;2022-11-23T07:07:48;94947.25;;;2.50;100.00
2397;BME280;1209;48.410;9.054;2022-11-23T07:10:14;94938.34;;;2.36;100.00
2397;BME280;1209;48.410;9.054;2022-11-23T07:12:40;94939.44;;;2.26;100.00
2397;BME280;1209;48.410;9.054;2022-11-23T07:15:06;94935.81;;;2.52;100.00
2397;BME280;1209;48.410;9.054;2022-11-23T07:17:31;94933.09;;;2.54;100.00
2397;BME280;1209;48.410;9.054;2022-11-23T07:19:57;94936.84;;;2.26;100.00
2397;BME280;1209;48.410;9.054;2022-11-23T07:22:22;94939.03;;;2.46;100.00
2397;BME280;1209;48.410;9.054;2022-11-23T07:24:47;94948.38;;;2.47;100.00
2397;BME280;1209;48.410;9.054;2022-11-23T07:27:15;94943.22;;;2.47;100.00
2397;BME280;1209;48.410;9.054;2022-11-23T07:29:41;94947.56;;;2.55;100.00
2397;BME280;1209;48.410;9.054;2022-11-23T07:32:06;94946.94;;;2.53;100.00
2397;BME280;1209;48.410;9.054;2022-11-23T07:34:32;94948.38;;;2.47;100.00
2397;BME280;1209;48.410;9.054;2022-11-23T07:36:58;94949.66;;;2.43;100.00
2397;BME280;1209;48.410;9.054;2022-11-23T07:39:23;94945.53;;;2.25;100.00
2397;BME280;1209;48.410;9.054;2022-11-23T07:41:48;94944.66;;;2.42;100.00
2397;BME280;1209;48.410;9.054;2022-11-23T07:44:14;94954.31;;;2.48;100.00
2397;BME280;1209;48.410;9.054;2022-11-23T07:46:39;94941.47;;;2.56;100.00
2397;BME280;1209;48.410;9.054;2022-11-23T07:49:04;94947.56;;;2.55;100.00
2397;BME280;1209;48.410;9.054;2022-11-23T07:51:30;94947.75;;;2.62;100.00
2397;BME280;1209;48.410;9.054;2022-11-23T07:53:55;94947.25;;;2.58;100.00
2397;BME280;1209;48.410;9.054;2022-11-23T07:56:21;94950.81;;;2.65;100.00
2397;BME280;1209;48.410;9.054;2022-11-23T07:58:47;94948.41;;;2.64;100.00
2397;BME280;1209;48.410;9.054;2022-11-23T08:01:16;94955.94;;;2.57;100.00
2397;BME280;1209;48.410;9.054;2022-11-23T08:03:46;94955.63;;;2.60;100.00
2397;BME280;1209;48.410;9.054;2022-11-23T08:06:12;94956.13;;;2.64;100.00
2397;BME280;1209;48.410;9.054;2022-11-23T08:08:38;94959.03;;;2.61;100.00
2397;BME280;1209;48.410;9.054;2022-11-23T08:11:05;94956.63;;;2.75;100.00
2397;BME280;1209;48.410;9.054;2022-11-23T08:13:30;94955.81;;;2.75;100.00
2397;BME280;1209;48.410;9.054;2022-11-23T08:15:56;94953.56;;;2.80;100.00
2397;BME280;1209;48.410;9.054;2022-11-23T08:18:22;94957.63;;;2.91;100.00
2397;BME280;1209;48.410;9.054;2022-11-23T08:20:48;94958.44;;;2.99;100.00
2397;BME280;1209;48.410;9.054;2022-11-23T08:23:13;94958.75;;;3.12;100.00
2397;BME280;1209;48.410;9.054;2022-11-23T08:25:39;94962.13;;;3.21;100.00
2397;BME280;1209;48.410;9.054;2022-11-23T08:28:04;94956.50;;;3.17;100.00
2397;BME280;1209;48.410;9.054;2022-11-23T08:30:31;94955.19;;;3.22;100.00
2397;BME280;1209;48.410;9.054;2022-11-23T08:32:58;94965.53;;;3.38;100.00
2397;BME280;1209;48.410;9.054;2022-11-23T08:35:23;94965.03;;;3.51;100.00
2397;BME280;1209;48.410;9.054;2022-11-23T08:37:49;94974.22;;;3.61;100.00
2397;BME280;1209;48.410;9.054;2022-11-23T08:40:14;94973.22;;;3.70;100.00
2397;BME280;1209;48.410;9.054;2022-11-23T08:42:39;94965.63;;;3.77;100.00
2397;BME280;1209;48.410;9.054;2022-11-23T08:45:05;94974.16;;;3.94;100.00
2397;BME280;1209;48.410;9.054;2022-11-23T08:47:31;94969.59;;;4.04;100.00
2397;BME280;1209;48.410;9.054;2022-11-23T08:49:57;94964.19;;;4.30;100.00
2397;BME280;1209;48.410;9.054;2022-11-23T08:52:22;94957.63;;;4.50;100.00
2397;BME280;1209;48.410;9.054;2022-11-23T08:54:48;94963.56;;;4.59;100.00
2397;BME280;1209;48.410;9.054;2022-11-23T08:57:13;94956.66;;;4.51;100.00
2397;BME280;1209;48.410;9.054;2022-11-23T08:59:38;94955.97;;;4.57;100.00
2397;BME280;1209;48.410;9.054;2022-11-23T09:02:04;94961.22;;;4.72;100.00
2397;BME280;1209;48.410;9.054;2022-11-23T09:04:29;94961.91;;;4.66;100.00
2397;BME280;1209;48.410;9.054;2022-11-23T09:06:55;94965.72;;;4.78;100.00
2397;BME280;1209;48.410;9.054;2022-11-23T09:09:20;94962.06;;;4.95;100.00
2397;BME280;1209;48.410;9.054;2022-11-23T09:11:46;94957.06;;;4.94;100.00
2397;BME280;1209;48.410;9.054;2022-11-23T09:14:12;94960.38;;;5.02;100.00
2397;BME280;1209;48.410;9.054;2022-11-23T09:16:38;94974.88;;;5.12;100.00
2397;BME280;1209;48.410;9.054;2022-11-23T09:19:03;94955.44;;;5.16;100.00
2397;BME280;1209;48.410;9.054;2022-11-23T09:21:30;94947.81;;;5.22;100.00
2397;BME280;1209;48.410;9.054;2022-11-23T09:23:58;94949.50;;;5.30;100.00
2397;BME280;1209;48.410;9.054;2022-11-23T09:26:23;94946.94;;;5.30;100.00
2397;BME280;1209;48.410;9.054;2022-11-23T09:28:49;94949.91;;;5.42;100.00
2397;BME280;1209;48.410;9.054;2022-11-23T09:31:14;94954.09;;;5.43;100.00
2397;BME280;1209;48.410;9.054;2022-11-23T09:33:40;94952.66;;;5.78;100.00
2397;BME280;1209;48.410;9.054;2022-11-23T09:36:05;94947.84;;;6.04;100.00
2397;BME280;1209;48.410;9.054;2022-11-23T09:38:31;94957.06;;;6.21;100.00
2397;BME280;1209;48.410;9.054;2022-11-23T09:43:50;94959.50;;;6.59;100.00
2397;BME280;1209;48.410;9.054;2022-11-23T09:49:16;94963.81;;;6.88;100.00
2397;BME280;1209;48.410;9.054;2022-11-23T09:51:43;94953.91;;;7.13;100.00
2397;BME280;1209;48.410;9.054;2022-11-23T09:54:31;94957.31;;;7.13;100.00
2397;BME280;1209;48.410;9.054;2022-11-23T09:56:57;94959.28;;;7.33;100.00
2397;BME280;1209;48.410;9.054;2022-11-23T10:01:55;94948.31;;;7.37;100.00
2397;BME280;1209;48.410;9.054;2022-11-23T10:04:21;94947.34;;;7.17;100.00
2397;BME280;1209;48.410;9.054;2022-11-23T10:07:12;94955.44;;;7.29;100.00
2397;BME280;1209;48.410;9.054;2022-11-23T10:13:03;94951.69;;;7.10;100.00
2397;BME280;1209;48.410;9.054;2022-11-23T10:23:54;94939.72;;;7.58;100.00
2397;BME280;1209;48.410;9.054;2022-11-23T10:26:40;94932.56;;;7.67;100.00
2397;BME280;1209;48.410;9.054;2022-11-23T10:31:49;94920.56;;;7.66;100.00
2397;BME280;1209;48.410;9.054;2022-11-23T10:34:20;94919.28;;;7.83;100.00
2397;BME280;1209;48.410;9.054;2022-11-23T10:36:48;94919.28;;;7.83;100.00
2397;BME280;1209;48.410;9.054;2022-11-23T10:39:22;94922.56;;;7.98;100.00
2397;BME280;1209;48.410;9.054;2022-11-23T10:41:50;94918.34;;;7.97;100.00
2397;BME280;1209;48.410;9.054;2022-11-23T10:46:44;94922.84;;;8.10;100.00
2397;BME280;1209;48.410;9.054;2022-11-23T10:49:17;94911.13;;;8.27;100.00
2397;BME280;1209;48.410;9.054;2022-11-23T10:52:03;94924.59;;;8.37;100.00
2397;BME280;1209;48.410;9.054;2022-11-23T10:54:38;94918.81;;;8.42;100.00
2397;BME280;1209;48.410;9.054;2022-11-23T11:02:27;94915.66;;;8.53;100.00
2397;BME280;1209;48.410;9.054;2022-11-23T11:07:58;94903.47;;;8.60;100.00
2397;BME280;1209;48.410;9.054;2022-11-23T11:13:01;94915.50;;;8.68;100.00
2397;BME280;1209;48.410;9.054;2022-11-23T11:15:26;94908.13;;;8.71;100.00
2397;BME280;1209;48.410;9.054;2022-11-23T11:17:57;94908.72;;;8.73;100.00
2397;BME280;1209;48.410;9.054;2022-11-23T11:20:27;94902.03;;;8.51;100.00
2397;BME280;1209;48.410;9.054;2022-11-23T11:22:58;94898.81;;;8.42;100.00
2397;BME280;1209;48.410;9.054;2022-11-23T11:25:30;94891.69;;;8.64;100.00
2397;BME280;1209;48.410;9.054;2022-11-23T11:27:57;94899.50;;;8.71;100.00
2397;BME280;1209;48.410;9.054;2022-11-23T11:30:25;94897.81;;;8.50;100.00
2397;BME280;1209;48.410;9.054;2022-11-23T11:35:31;94901.06;;;8.52;100.00
2397;BME280;1209;48.410;9.054;2022-11-23T11:38:26;94902.50;;;8.74;100.00
2397;BME280;1209;48.410;9.054;2022-11-23T11:40:51;94895.53;;;8.88;100.00
2397;BME280;1209;48.410;9.054;2022-11-23T11:46:03;94880.34;;;9.11;100.00
2397;BME280;1209;48.410;9.054;2022-11-23T11:48:39;94880.56;;;9.23;100.00
2397;BME280;1209;48.410;9.054;2022-11-23T11:51:11;94873.13;;;9.20;100.00
2397;BME280;1209;48.410;9.054;2022-11-23T11:53:48;94870.75;;;9.12;100.00
2397;BME280;1209;48.410;9.054;2022-11-23T11:56:29;94873.13;;;9.20;100.00
2397;BME280;1209;48.410;9.054;2022-11-23T11:58:57;94865.53;;;9.05;100.00
2397;BME280;1209;48.410;9.054;2022-11-23T12:01:37;94862.72;;;9.07;100.00
2397;BME280;1209;48.410;9.054;2022-11-23T12:04:13;94859.13;;;9.08;100.00
2397;BME280;1209;48.410;9.054;2022-11-23T12:09:40;94846.91;;;9.15;100.00
2397;BME280;1209;48.410;9.054;2022-11-23T12:12:14;94849.31;;;9.17;100.00
2397;BME280;1209;48.410;9.054;2022-11-23T12:14:41;94835.28;;;9.11;100.00
2397;BME280;1209;48.410;9.054;2022-11-23T12:17:30;94834.28;;;9.12;100.00
2397;BME280;1209;48.410;9.054;2022-11-23T12:25:30;94843.09;;;9.24;100.00
2397;BME280;1209;48.410;9.054;2022-11-23T12:31:13;94841.88;;;9.20;100.00
2397;BME280;1209;48.410;9.054;2022-11-23T12:34:17;94850.50;;;9.21;100.00
2397;BME280;1209;48.410;9.054;2022-11-23T12:37:50;94849.09;;;9.31;100.00
2397;BME280;1209;48.410;9.054;2022-11-23T12:40:02;94849.06;;;9.44;100.00
2397;BME280;1209;48.410;9.054;2022-11-23T12:42:43;94851.69;;;9.58;100.00
2397;BME280;1209;48.410;9.054;2022-11-23T12:45:20;94847.88;;;9.54;100.00
2397;BME280;1209;48.410;9.054;2022-11-23T12:48:07;94843.44;;;9.61;100.00
2397;BME280;1209;48.410;9.054;2022-11-23T12:53:30;94836.25;;;9.50;100.00
2397;BME280;1209;48.410;9.054;2022-11-23T12:59:09;94833.81;;;9.61;96.65
2397;BME280;1209;48.410;9.054;2022-11-23T13:01:38;94832.03;;;9.55;95.79
2397;BME280;1209;48.410;9.054;2022-11-23T13:13:27;94836.25;;;9.50;100.00
2397;BME280;1209;48.410;9.054;2022-11-23T13:16:17;94832.84;;;9.49;100.00
2397;BME280;1209;48.410;9.054;2022-11-23T13:18:54;94824.63;;;9.45;100.00
2397;BME280;1209;48.410;9.054;2022-11-23T13:23:58;94820.81;;;9.41;100.00
2397;BME280;1209;48.410;9.054;2022-11-23T13:26:26;94819.41;;;9.39;98.23
2397;BME280;1209;48.410;9.054;2022-11-23T13:28:56;94824.63;;;9.45;100.00
2397;BME280;1209;48.410;9.054;2022-11-23T13:31:29;94820.22;;;9.53;100.00
2397;BME280;1209;48.410;9.054;2022-11-23T13:34:00;94817.22;;;9.49;100.00
2397;BME280;1209;48.410;9.054;2022-11-23T13:38:58;94806.19;;;9.54;98.11
2397;BME280;1209;48.410;9.054;2022-11-23T13:44:34;94793.72;;;9.69;99.02
2397;BME280;1209;48.410;9.054;2022-11-23T13:47:06;94792.09;;;9.68;96.79
2397;BME280;1209;48.410;9.054;2022-11-23T13:49:48;94793.91;;;9.67;99.44
2397;BME280;1209;48.410;9.054;2022-11-23T13:55:05;94788.53;;;9.56;97.08
2397;BME280;1209;48.410;9.054;2022-11-23T13:57:31;94783.91;;;9.64;98.30
2397;BME280;1209;48.410;9.054;2022-11-23T14:06:05;94780.91;;;9.61;95.55
2397;BME280;1209;48.410;9.054;2022-11-23T14:08:35;94783.53;;;9.41;95.29
2397;BME280;1209;48.410;9.054;2022-11-23T14:11:10;94786.34;;;9.53;95.80
2397;BME280;1209;48.410;9.054;2022-11-23T14:13:36;94781.31;;;9.44;96.14
2397;BME280;1209;48.410;9.054;2022-11-23T14:16:02;94784.13;;;9.43;95.45
2397;BME280;1209;48.410;9.054;2022-11-23T14:27:25;94765.72;;;9.31;94.48
2397;BME280;1209;48.410;9.054;2022-11-23T14:35:32;94747.72;;;9.17;94.33
2397;BME280;1209;48.410;9.054;2022-11-23T14:41:08;94747.38;;;9.00;97.29
2397;BME280;1209;48.410;9.054;2022-11-23T14:43:39;94744.16;;;8.91;96.51
2397;BME280;1209;48.410;9.054;2022-11-23T14:46:13;94741.13;;;8.94;95.07
2397;BME280;1209;48.410;9.054;2022-11-23T14:48:39;94749.56;;;8.90;95.56
2397;BME280;1209;48.410;9.054;2022-11-23T14:51:09;94733.53;;;8.93;96.01
2397;BME280;1209;48.410;9.054;2022-11-23T14:53:44;94742.16;;;8.73;97.84
2397;BME280;1209;48.410;9.054;2022-11-23T14:59:06;94728.94;;;8.68;96.98
2397;BME280;1209;48.410;9.054;2022-11-23T15:01:33;94725.34;;;8.63;98.39
2397;BME280;1209;48.410;9.054;2022-11-23T15:04:06;94722.34;;;8.59;98.62
2397;BME280;1209;48.410;9.054;2022-11-23T15:06:34;94723.94;;;8.47;100.00
2397;BME280;1209;48.410;9.054;2022-11-23T15:09:12;94729.31;;;8.39;100.00
2397;BME280;1209;48.410;9.054;2022-11-23T15:11:40;94725.13;;;8.38;100.00
2397;BME280;1209;48.410;9.054;2022-11-23T15:14:19;94735.72;;;8.36;100.00
2397;BME280;1209;48.410;9.054;2022-11-23T15:16:44;94736.13;;;8.33;99.40